sensor_id;sensor_type;location;lat;lon;timestamp;pressure;altitude;pressure_sealevel;temperature;humidity
82021;BME280;71573;48.358;10.960;2023-07-20T00:02:20;95890.69;;;24.15;42.10
82021;BME280;71573;48.358;10.960;2023-07-20T00:05:21;95892.34;;;24.16;42.13
82021;BME280;71573;48.358;10.960;2023-07-20T00:08:26;95880.97;;;24.14;41.80
82021;BME280;71573;48.358;10.960;2023-07-20T00:11:28;95889.28;;;24.13;42.17
82021;BME280;71573;48.358;10.960;2023-07-20T00:14:29;95887.19;;;24.15;41.82
82021;BME280;71573;48.358;10.960;2023-07-20T00:17:31;95884.59;;;24.08;41.65
82021;BME280;71573;48.358;10.960;2023-07-20T00:20:33;95882.06;;;23.95;42.11
82021;BME280;71573;48.358;10.960;2023-07-20T00:23:35;95881.25;;;23.94;42.43
82021;BME280;71573;48.358;10.960;2023-07-20T00:26:37;95877.13;;;23.92;43.01
82021;BME280;71573;48.358;10.960;2023-07-20T00:29:38;95878.28;;;23.84;42.60
82021;BME280;71573;48.358;10.960;2023-07-20T00:32:42;95885.28;;;23.85;41.99
82021;BME280;71573;48.358;10.960;2023-07-20T00:35:44;95893.28;;;23.92;42.32
82021;BME280;71573;48.358;10.960;2023-07-20T00:38:46;95878.88;;;23.86;42.17
82021;BME280;71573;48.358;10.960;2023-07-20T00:41:47;95879.91;;;23.85;42.23
82021;BME280;71573;48.358;10.960;2023-07-20T00:44:49;95896.28;;;23.84;42.06
82021;BME280;71573;48.358;10.960;2023-07-20T00:47:51;95894.66;;;23.83;42.47
82021;BME280;71573;48.358;10.960;2023-07-20T00:50:54;95899.13;;;23.89;42.25
82021;BME280;71573;48.358;10.960;2023-07-20T00:53:57;95896.66;;;23.87;41.96
82021;BME280;71573;48.358;10.960;2023-07-20T00:57:00;95902.41;;;23.91;42.04
82021;BME280;71573;48.358;10.960;2023-07-20T01:00:03;95902.50;;;23.84;41.81
82021;BME280;71573;48.358;10.960;2023-07-20T01:03:05;95900.41;;;23.86;41.40
82021;BME280;71573;48.358;10.960;2023-07-20T01:06:26;95898.97;;;23.84;41.29
82021;BME280;71573;48.358;10.960;2023-07-20T01:09:42;95903.16;;;23.79;41.27
82021;BME280;71573;48.358;10.960;2023-07-20T01:12:52;95905.19;;;23.84;41.31
82021;BME280;71573;48.358;10.960;2023-07-20T01:16:00;95900.84;;;23.83;40.97
82021;BME280;71573;48.358;10.960;2023-07-20T01:19:03;95897.41;;;23.76;40.76
82021;BME280;71573;48.358;10.960;2023-07-20T01:26:11;95903.47;;;23.71;40.11
82021;BME280;71573;48.358;10.960;2023-07-20T01:32:31;95891.59;;;23.61;40.89
82021;BME280;71573;48.358;10.960;2023-07-20T01:35:34;95896.91;;;23.67;41.34
82021;BME280;71573;48.358;10.960;2023-07-20T01:38:38;95903.09;;;23.68;40.90
82021;BME280;71573;48.358;10.960;2023-07-20T01:41:40;95899.59;;;23.67;40.57
82021;BME280;71573;48.358;10.960;2023-07-20T01:44:42;95901.22;;;23.68;41.23
82021;BME280;71573;48.358;10.960;2023-07-20T01:47:44;95892.63;;;23.60;40.70
82021;BME280;71573;48.358;10.960;2023-07-20T01:50:45;95891.81;;;23.59;41.20
82021;BME280;71573;48.358;10.960;2023-07-20T01:53:47;95911.63;;;23.65;41.18
82021;BME280;71573;48.358;10.960;2023-07-20T01:56:49;95901.31;;;23.62;41.19
82021;BME280;71573;48.358;10.960;2023-07-20T01:59:51;95891.44;;;23.56;41.14
82021;BME280;71573;48.358;10.960;2023-07-20T02:02:53;95914.69;;;23.68;41.15
82021;BME280;71573;48.358;10.960;2023-07-20T02:05:55;95903.78;;;23.63;40.90
82021;BME280;71573;48.358;10.960;2023-07-20T02:08:59;95912.22;;;23.67;41.25
82021;BME280;71573;48.358;10.960;2023-07-20T02:12:02;95907.50;;;23.62;40.88
82021;BME280;71573;48.358;10.960;2023-07-20T02:15:04;95919.47;;;23.66;41.08
82021;BME280;71573;48.358;10.960;2023-07-20T02:18:06;95920.13;;;23.62;41.32
82021;BME280;71573;48.358;10.960;2023-07-20T02:21:08;95897.09;;;23.47;41.03
82021;BME280;71573;48.358;10.960;2023-07-20T02:24:10;95920.25;;;23.48;40.67
82021;BME280;71573;48.358;10.960;2023-07-20T02:27:12;95918.59;;;23.47;41.16
82021;BME280;71573;48.358;10.960;2023-07-20T02:30:14;95902.84;;;23.33;40.92
82021;BME280;71573;48.358;10.960;2023-07-20T02:33:17;95916.59;;;23.43;41.69
82021;BME280;71573;48.358;10.960;2023-07-20T02:36:19;95908.97;;;23.40;41.15
82021;BME280;71573;48.358;10.960;2023-07-20T02:39:21;95909.78;;;23.40;41.29
82021;BME280;71573;48.358;10.960;2023-07-20T02:42:23;95922.41;;;23.40;41.28
82021;BME280;71573;48.358;10.960;2023-07-20T02:45:27;95916.44;;;23.38;41.22
82021;BME280;71573;48.358;10.960;2023-07-20T02:48:29;95929.72;;;23.33;41.27
82021;BME280;71573;48.358;10.960;2023-07-20T02:51:31;95931.97;;;23.36;41.24
82021;BME280;71573;48.358;10.960;2023-07-20T02:54:32;95915.06;;;23.29;41.27
82021;BME280;71573;48.358;10.960;2023-07-20T02:57:35;95920.00;;;23.32;41.24
82021;BME280;71573;48.358;10.960;2023-07-20T03:00:36;95907.97;;;23.16;41.67
82021;BME280;71573;48.358;10.960;2023-07-20T03:03:38;95937.78;;;23.33;41.96
82021;BME280;71573;48.358;10.960;2023-07-20T03:06:41;95940.09;;;23.29;41.43
82021;BME280;71573;48.358;10.960;2023-07-20T03:09:42;95931.47;;;23.21;41.40
82021;BME280;71573;48.358;10.960;2023-07-20T03:12:45;95928.34;;;23.24;41.55
82021;BME280;71573;48.358;10.960;2023-07-20T03:15:46;95938.28;;;23.23;41.73
82021;BME280;71573;48.358;10.960;2023-07-20T03:18:48;95940.16;;;23.23;41.96
82021;BME280;71573;48.358;10.960;2023-07-20T03:21:50;95950.31;;;23.21;42.18
82021;BME280;71573;48.358;10.960;2023-07-20T03:24:53;95953.22;;;23.19;41.80
82021;BME280;71573;48.358;10.960;2023-07-20T03:27:55;95952.44;;;23.12;42.12
82021;BME280;71573;48.358;10.960;2023-07-20T03:30:57;95942.56;;;23.06;42.03
82021;BME280;71573;48.358;10.960;2023-07-20T03:34:01;95944.88;;;23.02;42.08
82021;BME280;71573;48.358;10.960;2023-07-20T03:37:02;95951.28;;;23.01;41.96
82021;BME280;71573;48.358;10.960;2023-07-20T03:40:06;95952.94;;;23.02;42.49
82021;BME280;71573;48.358;10.960;2023-07-20T03:43:09;95960.34;;;23.07;42.05
82021;BME280;71573;48.358;10.960;2023-07-20T03:46:10;95958.69;;;23.06;42.42
82021;BME280;71573;48.358;10.960;2023-07-20T03:49:13;95958.59;;;22.94;42.24
82021;BME280;71573;48.358;10.960;2023-07-20T03:52:14;95965.78;;;23.00;42.42
82021;BME280;71573;48.358;10.960;2023-07-20T03:55:16;95960.63;;;22.99;42.45
82021;BME280;71573;48.358;10.960;2023-07-20T03:58:19;95957.50;;;23.02;42.35
82021;BME280;71573;48.358;10.960;2023-07-20T04:01:21;95963.53;;;22.97;42.45
82021;BME280;71573;48.358;10.960;2023-07-20T04:04:22;95967.84;;;22.98;43.02
82021;BME280;71573;48.358;10.960;2023-07-20T04:07:24;95967.09;;;22.91;42.58
82021;BME280;71573;48.358;10.960;2023-07-20T04:10:26;95981.38;;;22.85;42.79
82021;BME280;71573;48.358;10.960;2023-07-20T04:13:28;95971.69;;;22.84;42.90
82021;BME280;71573;48.358;10.960;2023-07-20T04:16:30;95966.47;;;22.89;42.41
82021;BME280;71573;48.358;10.960;2023-07-20T04:19:32;95976.34;;;22.95;42.16
82021;BME280;71573;48.358;10.960;2023-07-20T04:22:34;95968.13;;;22.90;41.90
82021;BME280;71573;48.358;10.960;2023-07-20T04:25:39;95976.78;;;22.92;41.43
82021;BME280;71573;48.358;10.960;2023-07-20T04:28:41;95988.34;;;22.93;41.51
82021;BME280;71573;48.358;10.960;2023-07-20T04:31:47;95994.94;;;22.97;41.50
82021;BME280;71573;48.358;10.960;2023-07-20T04:34:49;95985.03;;;22.97;40.93
82021;BME280;71573;48.358;10.960;2023-07-20T04:37:51;95992.31;;;22.90;40.84
82021;BME280;71573;48.358;10.960;2023-07-20T04:40:55;95995.59;;;22.92;40.84
82021;BME280;71573;48.358;10.960;2023-07-20T04:43:57;95989.00;;;22.88;40.96
82021;BME280;71573;48.358;10.960;2023-07-20T04:47:02;95995.22;;;22.89;40.92
82021;BME280;71573;48.358;10.960;2023-07-20T04:50:08;95995.22;;;22.89;40.79
82021;BME280;71573;48.358;10.960;2023-07-20T04:53:10;95998.31;;;22.86;40.84
82021;BME280;71573;48.358;10.960;2023-07-20T04:56:12;96002.34;;;23.01;40.97
82021;BME280;71573;48.358;10.960;2023-07-20T04:59:14;95997.31;;;23.11;41.03
82021;BME280;71573;48.358;10.960;2023-07-20T05:02:16;96000.34;;;23.22;41.07
82021;BME280;71573;48.358;10.960;2023-07-20T05:05:18;95993.69;;;23.24;40.86
82021;BME280;71573;48.358;10.960;2023-07-20T05:08:20;96000.13;;;23.23;40.72
82021;BME280;71573;48.358;10.960;2023-07-20T05:11:23;96009.59;;;23.26;40.66
82021;BME280;71573;48.358;10.960;2023-07-20T05:14:25;96003.03;;;23.22;41.04
82021;BME280;71573;48.358;10.960;2023-07-20T05:17:27;95996.50;;;23.36;40.83
82021;BME280;71573;48.358;10.960;2023-07-20T05:20:29;95995.66;;;23.35;40.37
82021;BME280;71573;48.358;10.960;2023-07-20T05:23:33;96005.44;;;23.55;40.49
82021;BME280;71573;48.358;10.960;2023-07-20T05:26:35;96003.31;;;24.00;39.86
82021;BME280;71573;48.358;10.960;2023-07-20T05:29:37;95981.50;;;24.08;38.97
82021;BME280;71573;48.358;10.960;2023-07-20T05:32:39;96007.22;;;24.40;38.00
82021;BME280;71573;48.358;10.960;2023-07-20T05:35:41;96000.00;;;24.83;37.76
82021;BME280;71573;48.358;10.960;2023-07-20T05:38:42;96000.00;;;25.13;36.74
82021;BME280;71573;48.358;10.960;2023-07-20T05:41:44;95998.38;;;25.23;36.45
82021;BME280;71573;48.358;10.960;2023-07-20T05:44:46;96008.00;;;24.89;36.59
82021;BME280;71573;48.358;10.960;2023-07-20T05:47:49;96007.81;;;24.42;37.76
82021;BME280;71573;48.358;10.960;2023-07-20T05:50:51;96002.94;;;24.15;38.55
82021;BME280;71573;48.358;10.960;2023-07-20T05:53:53;96008.34;;;24.33;38.34
82021;BME280;71573;48.358;10.960;2023-07-20T05:56:55;95990.81;;;24.24;38.52
82021;BME280;71573;48.358;10.960;2023-07-20T05:59:56;95998.16;;;24.17;38.64
82021;BME280;71573;48.358;10.960;2023-07-20T06:02:58;96015.00;;;24.12;39.00
82021;BME280;71573;48.358;10.960;2023-07-20T06:06:00;96009.66;;;24.24;38.60
82021;BME280;71573;48.358;10.960;2023-07-20T06:09:13;96018.00;;;24.40;38.29
82021;BME280;71573;48.358;10.960;2023-07-20T06:12:15;96018.13;;;24.46;38.11
82021;BME280;71573;48.358;10.960;2023-07-20T06:15:25;96028.00;;;24.52;38.25
82021;BME280;71573;48.358;10.960;2023-07-20T06:18:28;96006.97;;;24.24;38.83
82021;BME280;71573;48.358;10.960;2023-07-20T06:21:29;96014.75;;;24.14;39.27
82021;BME280;71573;48.358;10.960;2023-07-20T06:24:31;96004.81;;;23.96;39.28
82021;BME280;71573;48.358;10.960;2023-07-20T06:27:33;96011.25;;;23.95;39.58
82021;BME280;71573;48.358;10.960;2023-07-20T06:30:34;96022.63;;;23.97;39.41
82021;BME280;71573;48.358;10.960;2023-07-20T06:33:36;96013.78;;;23.90;39.32
82021;BME280;71573;48.358;10.960;2023-07-20T06:36:38;95983.66;;;23.63;39.86
82021;BME280;71573;48.358;10.960;2023-07-20T06:39:40;96004.66;;;23.72;40.32
82021;BME280;71573;48.358;10.960;2023-07-20T06:42:44;96014.53;;;23.78;40.90
82021;BME280;71573;48.358;10.960;2023-07-20T06:45:52;96015.41;;;23.72;40.68
82021;BME280;71573;48.358;10.960;2023-07-20T06:48:57;96027.75;;;23.80;40.77
82021;BME280;71573;48.358;10.960;2023-07-20T06:52:02;96016.00;;;23.74;41.04
82021;BME280;71573;48.358;10.960;2023-07-20T06:55:04;95999.34;;;23.66;40.99
82021;BME280;71573;48.358;10.960;2023-07-20T06:58:06;96016.00;;;23.74;41.67
82021;BME280;71573;48.358;10.960;2023-07-20T07:01:08;96029.19;;;23.83;41.39
82021;BME280;71573;48.358;10.960;2023-07-20T07:04:10;96020.06;;;23.84;41.59
82021;BME280;71573;48.358;10.960;2023-07-20T07:07:13;96018.88;;;23.79;41.76
82021;BME280;71573;48.358;10.960;2023-07-20T07:10:26;96019.91;;;23.78;41.29
82021;BME280;71573;48.358;10.960;2023-07-20T07:13:28;96023.19;;;23.81;41.63
82021;BME280;71573;48.358;10.960;2023-07-20T07:16:30;96028.13;;;23.84;42.69
82021;BME280;71573;48.358;10.960;2023-07-20T07:19:32;96011.16;;;23.83;42.80
82021;BME280;71573;48.358;10.960;2023-07-20T07:22:34;96021.41;;;23.93;43.01
82021;BME280;71573;48.358;10.960;2023-07-20T07:25:36;96026.94;;;23.98;43.43
82021;BME280;71573;48.358;10.960;2023-07-20T07:28:38;96015.81;;;23.94;43.43
82021;BME280;71573;48.358;10.960;2023-07-20T07:31:40;96022.84;;;23.95;43.74
82021;BME280;71573;48.358;10.960;2023-07-20T07:34:43;96015.34;;;23.97;43.38
82021;BME280;71573;48.358;10.960;2023-07-20T07:37:47;96020.75;;;23.97;43.90
82021;BME280;71573;48.358;10.960;2023-07-20T07:41:09;96028.97;;;24.02;44.00
82021;BME280;71573;48.358;10.960;2023-07-20T07:44:10;96017.59;;;24.00;43.81
82021;BME280;71573;48.358;10.960;2023-07-20T07:47:13;96022.16;;;24.00;43.64
82021;BME280;71573;48.358;10.960;2023-07-20T07:50:15;96023.00;;;24.00;43.48
82021;BME280;71573;48.358;10.960;2023-07-20T07:53:16;96017.38;;;24.02;43.95
82021;BME280;71573;48.358;10.960;2023-07-20T07:56:19;96012.22;;;24.00;43.45
82021;BME280;71573;48.358;10.960;2023-07-20T07:59:25;96011.19;;;24.01;43.58
82021;BME280;71573;48.358;10.960;2023-07-20T08:02:27;96016.72;;;24.06;43.42
82021;BME280;71573;48.358;10.960;2023-07-20T08:05:29;96007.59;;;24.07;43.31
82021;BME280;71573;48.358;10.960;2023-07-20T08:08:32;96024.03;;;24.18;42.66
82021;BME280;71573;48.358;10.960;2023-07-20T08:11:34;96025.44;;;24.20;43.11
82021;BME280;71573;48.358;10.960;2023-07-20T08:14:35;96021.94;;;24.20;42.69
82021;BME280;71573;48.358;10.960;2023-07-20T08:17:37;96014.53;;;24.15;43.08
82021;BME280;71573;48.358;10.960;2023-07-20T08:20:43;96020.97;;;24.14;43.42
82021;BME280;71573;48.358;10.960;2023-07-20T08:23:45;96015.59;;;24.14;42.83
82021;BME280;71573;48.358;10.960;2023-07-20T08:26:47;96020.88;;;24.21;42.96
82021;BME280;71573;48.358;10.960;2023-07-20T08:29:49;96025.44;;;24.20;43.25
82021;BME280;71573;48.358;10.960;2023-07-20T08:32:51;96025.22;;;24.22;43.23
82021;BME280;71573;48.358;10.960;2023-07-20T08:35:53;96013.50;;;24.16;43.49
82021;BME280;71573;48.358;10.960;2023-07-20T08:38:58;96028.97;;;24.21;43.41
82021;BME280;71573;48.358;10.960;2023-07-20T08:42:01;96026.88;;;24.23;43.37
82021;BME280;71573;48.358;10.960;2023-07-20T08:45:06;96030.38;;;24.23;42.61
82021;BME280;71573;48.358;10.960;2023-07-20T08:48:11;96023.94;;;24.24;43.60
82021;BME280;71573;48.358;10.960;2023-07-20T08:51:14;96012.44;;;24.17;42.66
82021;BME280;71573;48.358;10.960;2023-07-20T08:54:17;96014.22;;;24.23;42.45
82021;BME280;71573;48.358;10.960;2023-07-20T08:57:20;96006.00;;;24.18;42.36
82021;BME280;71573;48.358;10.960;2023-07-20T09:00:24;95999.50;;;24.26;42.56
82021;BME280;71573;48.358;10.960;2023-07-20T09:03:26;95990.81;;;24.24;42.33
82021;BME280;71573;48.358;10.960;2023-07-20T09:06:28;95996.81;;;24.26;42.47
82021;BME280;71573;48.358;10.960;2023-07-20T09:09:31;96003.41;;;24.30;43.30
82021;BME280;71573;48.358;10.960;2023-07-20T09:12:38;96006.69;;;24.32;42.46
82021;BME280;71573;48.358;10.960;2023-07-20T09:15:46;96000.34;;;24.26;42.37
82021;BME280;71573;48.358;10.960;2023-07-20T09:18:48;95996.38;;;24.29;42.98
82021;BME280;71573;48.358;10.960;2023-07-20T09:21:51;95998.41;;;24.33;42.22
82021;BME280;71573;48.358;10.960;2023-07-20T09:24:53;95996.97;;;24.31;42.44
82021;BME280;71573;48.358;10.960;2023-07-20T09:27:55;96003.56;;;24.35;42.68
82021;BME280;71573;48.358;10.960;2023-07-20T09:30:57;96000.03;;;24.34;43.23
82021;BME280;71573;48.358;10.960;2023-07-20T09:33:59;95998.63;;;24.32;43.79
82021;BME280;71573;48.358;10.960;2023-07-20T09:37:02;95988.53;;;24.27;43.85
82021;BME280;71573;48.358;10.960;2023-07-20T09:40:07;96001.31;;;24.32;42.07
82021;BME280;71573;48.358;10.960;2023-07-20T09:43:15;95987.84;;;24.32;42.45
82021;BME280;71573;48.358;10.960;2023-07-20T09:46:20;96002.50;;;24.36;41.44
82021;BME280;71573;48.358;10.960;2023-07-20T09:49:25;96000.63;;;24.36;42.20
82021;BME280;71573;48.358;10.960;2023-07-20T09:52:31;95986.56;;;24.34;42.68
82021;BME280;71573;48.358;10.960;2023-07-20T09:55:36;95983.88;;;24.34;41.25
82021;BME280;71573;48.358;10.960;2023-07-20T09:58:39;95997.50;;;24.39;41.18
82021;BME280;71573;48.358;10.960;2023-07-20T10:01:41;95990.91;;;24.35;41.37
82021;BME280;71573;48.358;10.960;2023-07-20T10:04:44;95978.50;;;24.34;41.81
82021;BME280;71573;48.358;10.960;2023-07-20T10:07:48;95980.97;;;24.36;41.62
82021;BME280;71573;48.358;10.960;2023-07-20T10:10:50;95973.47;;;24.38;41.03
82021;BME280;71573;48.358;10.960;2023-07-20T10:13:53;95988.38;;;24.40;40.67
82021;BME280;71573;48.358;10.960;2023-07-20T10:17:01;95987.53;;;24.40;41.37
82021;BME280;71573;48.358;10.960;2023-07-20T10:20:06;95977.22;;;24.37;41.08
82021;BME280;71573;48.358;10.960;2023-07-20T10:23:12;95976.78;;;24.40;41.41
82021;BME280;71573;48.358;10.960;2023-07-20T10:26:15;95966.09;;;24.33;40.80
82021;BME280;71573;48.358;10.960;2023-07-20T10:29:17;95975.13;;;24.39;40.82
82021;BME280;71573;48.358;10.960;2023-07-20T10:32:19;95960.00;;;24.38;41.27
82021;BME280;71573;48.358;10.960;2023-07-20T10:35:22;95948.88;;;24.34;40.95
82021;BME280;71573;48.358;10.960;2023-07-20T10:41:47;95963.66;;;24.43;40.06
82021;BME280;71573;48.358;10.960;2023-07-20T10:44:48;95957.09;;;24.39;39.71
82021;BME280;71573;48.358;10.960;2023-07-20T10:47:55;95936.16;;;24.23;39.49
82021;BME280;71573;48.358;10.960;2023-07-20T10:51:14;95959.19;;;24.37;39.80
82021;BME280;71573;48.358;10.960;2023-07-20T10:57:25;95959.41;;;24.36;39.41
82021;BME280;71573;48.358;10.960;2023-07-20T11:00:30;95951.78;;;24.33;39.26
82021;BME280;71573;48.358;10.960;2023-07-20T11:03:37;95941.72;;;24.28;39.34
82021;BME280;71573;48.358;10.960;2023-07-20T11:06:45;95941.25;;;24.31;39.85
82021;BME280;71573;48.358;10.960;2023-07-20T11:09:47;95937.75;;;24.31;40.54
82021;BME280;71573;48.358;10.960;2023-07-20T11:13:19;95940.78;;;24.34;40.87
82021;BME280;71573;48.358;10.960;2023-07-20T11:16:38;95930.94;;;24.28;41.70
82021;BME280;71573;48.358;10.960;2023-07-20T11:19:40;95935.88;;;24.31;41.14
82021;BME280;71573;48.358;10.960;2023-07-20T11:22:46;95927.44;;;24.28;40.90
82021;BME280;71573;48.358;10.960;2023-07-20T11:25:48;95940.56;;;24.36;40.96
82021;BME280;71573;48.358;10.960;2023-07-20T11:28:51;95929.22;;;24.34;40.53
82021;BME280;71573;48.358;10.960;2023-07-20T11:31:53;95910.28;;;24.22;40.70
82021;BME280;71573;48.358;10.960;2023-07-20T11:34:55;95922.53;;;24.36;40.75
82021;BME280;71573;48.358;10.960;2023-07-20T11:37:57;95912.31;;;24.27;40.90
82021;BME280;71573;48.358;10.960;2023-07-20T11:40:59;95918.44;;;24.34;41.06
82021;BME280;71573;48.358;10.960;2023-07-20T11:44:01;95911.03;;;24.29;41.50
82021;BME280;71573;48.358;10.960;2023-07-20T11:47:10;95910.94;;;24.36;41.46
82021;BME280;71573;48.358;10.960;2023-07-20T11:50:13;95904.16;;;24.33;40.74
82021;BME280;71573;48.358;10.960;2023-07-20T11:53:15;95914.22;;;24.38;40.79
82021;BME280;71573;48.358;10.960;2023-07-20T11:56:17;95877.59;;;24.19;40.37
82021;BME280;71573;48.358;10.960;2023-07-20T11:59:19;95908.63;;;24.39;40.97
82021;BME280;71573;48.358;10.960;2023-07-20T12:02:21;95902.03;;;24.35;41.32
82021;BME280;71573;48.358;10.960;2023-07-20T12:05:22;95900.78;;;24.38;41.60
82021;BME280;71573;48.358;10.960;2023-07-20T12:08:24;95906.50;;;24.41;41.51
82021;BME280;71573;48.358;10.960;2023-07-20T12:11:31;95902.41;;;24.39;41.43
82021;BME280;71573;48.358;10.960;2023-07-20T12:14:32;95901.72;;;24.43;41.73
82021;BME280;71573;48.358;10.960;2023-07-20T12:17:34;95891.19;;;24.42;42.53
82021;BME280;71573;48.358;10.960;2023-07-20T12:20:38;95878.03;;;24.34;42.43
82021;BME280;71573;48.358;10.960;2023-07-20T12:23:41;95892.47;;;24.39;41.80
82021;BME280;71573;48.358;10.960;2023-07-20T12:26:43;95867.63;;;24.37;42.05
82021;BME280;71573;48.358;10.960;2023-07-20T12:29:45;95868.59;;;24.43;40.22
82021;BME280;71573;48.358;10.960;2023-07-20T12:32:47;95862.00;;;24.39;39.27
82021;BME280;71573;48.358;10.960;2023-07-20T12:35:49;95870.00;;;24.46;39.49
82021;BME280;71573;48.358;10.960;2023-07-20T12:38:51;95856.16;;;24.42;38.99
82021;BME280;71573;48.358;10.960;2023-07-20T12:41:52;95858.03;;;24.41;39.78
82021;BME280;71573;48.358;10.960;2023-07-20T12:44:54;95857.13;;;24.48;39.81
82021;BME280;71573;48.358;10.960;2023-07-20T12:47:56;95862.50;;;24.48;39.93
82021;BME280;71573;48.358;10.960;2023-07-20T12:50:58;95861.91;;;24.46;40.54
82021;BME280;71573;48.358;10.960;2023-07-20T12:53:59;95858.63;;;24.43;40.68
82021;BME280;71573;48.358;10.960;2023-07-20T12:57:01;95851.38;;;24.44;40.97
82021;BME280;71573;48.358;10.960;2023-07-20T13:00:09;95841.53;;;24.38;41.33
82021;BME280;71573;48.358;10.960;2023-07-20T13:03:11;95832.41;;;24.39;40.92
82021;BME280;71573;48.358;10.960;2023-07-20T13:06:31;95831.56;;;24.38;40.80
82021;BME280;71573;48.358;10.960;2023-07-20T13:09:33;95838.97;;;24.43;40.33
82021;BME280;71573;48.358;10.960;2023-07-20T13:12:35;95846.34;;;24.48;39.90
82021;BME280;71573;48.358;10.960;2023-07-20T13:15:41;95835.56;;;24.48;39.90
82021;BME280;71573;48.358;10.960;2023-07-20T13:18:43;95810.38;;;24.42;39.42
82021;BME280;71573;48.358;10.960;2023-07-20T13:21:45;95829.72;;;24.51;38.80
82021;BME280;71573;48.358;10.960;2023-07-20T13:24:46;95828.66;;;24.52;39.27
82021;BME280;71573;48.358;10.960;2023-07-20T13:27:50;95802.66;;;24.46;38.58
82021;BME280;71573;48.358;10.960;2023-07-20T13:30:52;95815.91;;;24.47;38.86
82021;BME280;71573;48.358;10.960;2023-07-20T13:33:55;95817.78;;;24.47;38.83
82021;BME280;71573;48.358;10.960;2023-07-20T13:37:02;95805.34;;;24.46;39.49
82021;BME280;71573;48.358;10.960;2023-07-20T13:40:04;95820.00;;;24.50;39.50
82021;BME280;71573;48.358;10.960;2023-07-20T13:43:10;95799.84;;;24.40;40.75
82021;BME280;71573;48.358;10.960;2023-07-20T13:46:11;95819.19;;;24.49;40.76
82021;BME280;71573;48.358;10.960;2023-07-20T13:49:17;95799.97;;;24.46;40.97
82021;BME280;71573;48.358;10.960;2023-07-20T13:52:24;95788.97;;;24.47;41.54
82021;BME280;71573;48.358;10.960;2023-07-20T13:55:28;95799.28;;;24.50;40.70
82021;BME280;71573;48.358;10.960;2023-07-20T13:58:35;95805.00;;;24.54;40.98
82021;BME280;71573;48.358;10.960;2023-07-20T14:01:37;95773.16;;;24.39;41.69
82021;BME280;71573;48.358;10.960;2023-07-20T14:04:39;95778.19;;;24.47;41.58
82021;BME280;71573;48.358;10.960;2023-07-20T14:07:41;95781.47;;;24.49;41.63
82021;BME280;71573;48.358;10.960;2023-07-20T14:10:45;95759.56;;;24.46;40.63
82021;BME280;71573;48.358;10.960;2023-07-20T14:13:50;95765.31;;;24.49;41.31
82021;BME280;71573;48.358;10.960;2023-07-20T14:16:52;95763.66;;;24.48;40.56
82021;BME280;71573;48.358;10.960;2023-07-20T14:19:54;95764.84;;;24.52;41.41
82021;BME280;71573;48.358;10.960;2023-07-20T14:22:56;95768.81;;;24.50;41.20
82021;BME280;71573;48.358;10.960;2023-07-20T14:25:59;95770.22;;;24.52;40.56
82021;BME280;71573;48.358;10.960;2023-07-20T14:29:01;95755.94;;;24.52;40.62
82021;BME280;71573;48.358;10.960;2023-07-20T14:32:03;95769.53;;;24.57;40.93
82021;BME280;71573;48.358;10.960;2023-07-20T14:35:07;95759.47;;;24.52;41.18
82021;BME280;71573;48.358;10.960;2023-07-20T14:38:11;95765.66;;;24.53;40.76
82021;BME280;71573;48.358;10.960;2023-07-20T14:41:13;95767.88;;;24.56;40.91
82021;BME280;71573;48.358;10.960;2023-07-20T14:44:15;95754.53;;;24.49;41.07
82021;BME280;71573;48.358;10.960;2023-07-20T14:47:16;95757.13;;;24.56;40.89
82021;BME280;71573;48.358;10.960;2023-07-20T14:50:20;95762.28;;;24.57;40.90
82021;BME280;71573;48.358;10.960;2023-07-20T14:53:22;95753.84;;;24.54;41.14
82021;BME280;71573;48.358;10.960;2023-07-20T14:56:24;95751.16;;;24.54;41.13
82021;BME280;71573;48.358;10.960;2023-07-20T14:59:26;95739.78;;;24.52;41.46
82021;BME280;71573;48.358;10.960;2023-07-20T15:02:27;95743.28;;;24.52;40.99
82021;BME280;71573;48.358;10.960;2023-07-20T15:05:29;95745.53;;;24.55;40.28
82021;BME280;71573;48.358;10.960;2023-07-20T15:08:31;95741.53;;;24.58;40.73
82021;BME280;71573;48.358;10.960;2023-07-20T15:11:33;95746.34;;;24.56;40.11
82021;BME280;71573;48.358;10.960;2023-07-20T15:14:35;95743.66;;;24.56;40.32
82021;BME280;71573;48.358;10.960;2023-07-20T15:17:39;95731.22;;;24.55;42.26
82021;BME280;71573;48.358;10.960;2023-07-20T15:20:41;95735.34;;;24.57;41.59
82021;BME280;71573;48.358;10.960;2023-07-20T15:23:43;95733.47;;;24.58;42.00
82021;BME280;71573;48.358;10.960;2023-07-20T15:26:45;95724.22;;;24.54;41.75
82021;BME280;71573;48.358;10.960;2023-07-20T15:29:48;95718.22;;;24.52;40.72
82021;BME280;71573;48.358;10.960;2023-07-20T15:32:50;95718.22;;;24.52;42.84
82021;BME280;71573;48.358;10.960;2023-07-20T15:35:55;95717.75;;;24.55;41.76
82021;BME280;71573;48.358;10.960;2023-07-20T15:38:57;95717.19;;;24.53;41.19
82021;BME280;71573;48.358;10.960;2023-07-20T15:41:59;95714.84;;;24.56;41.64
82021;BME280;71573;48.358;10.960;2023-07-20T15:45:01;95714.25;;;24.54;41.52
82021;BME280;71573;48.358;10.960;2023-07-20T15:48:03;95713.19;;;24.55;41.76
82021;BME280;71573;48.358;10.960;2023-07-20T15:51:04;95706.53;;;24.58;42.40
82021;BME280;71573;48.358;10.960;2023-07-20T15:54:08;95708.41;;;24.57;40.77
82021;BME280;71573;48.358;10.960;2023-07-20T15:57:11;95711.66;;;24.59;39.77
82021;BME280;71573;48.358;10.960;2023-07-20T16:00:14;95718.22;;;24.63;39.45
82021;BME280;71573;48.358;10.960;2023-07-20T16:03:15;95711.44;;;24.61;39.97
82021;BME280;71573;48.358;10.960;2023-07-20T16:06:17;95703.59;;;24.59;40.50
82021;BME280;71573;48.358;10.960;2023-07-20T16:09:19;95713.91;;;24.62;40.60
82021;BME280;71573;48.358;10.960;2023-07-20T16:12:21;95703.59;;;24.59;40.17